KLEB

Lebanon Municipal Airport

Lebanon, New Hampshire, USA
KLEB 201220Z 2012/2112 00000KT P6SM SCT001 FM201230 16005KT P6SM SKC FM210800 00000KT 1 1/2SM BR BKN005
Issued Valid From Valid To
Jul-20 @ 12:20 UTC
(2 hours ago)
Jul-20 @ 12:00 UTC
(2 hours ago)
Jul-21 @ 12:00 UTC
(in 22 hours)
Expired Click to View Jul-20 @ 12:00 to Jul-20 @ 12:30
KLEB 201220Z 2012/2112 00000KT P6SM SCT001
Visibility Clouds
Greater than 6 miles
  • Scattered at 100' AGL
From Jul-20 @ 12:30 to Jul-21 @ 08:00
FM201230 16005KT P6SM SKC
Wind Visibility Clouds
160° at 5 knots Greater than 6 miles
  • Clear skies
From Jul-21 @ 08:00 to Jul-21 @ 12:00
FM210800 00000KT 1 1/2SM BR BKN005
Visibility Clouds Conditions
1 1/2 miles
  • Broken at 500' AGL
  • Mist
KLEB 201220Z 2012/2112 00000KT P6SM SCT001 FM201230 16005KT P6SM SKC FM210800 00000KT 1 1/2SM BR BKN005
Issued Jul-20 @ 12:20 UTC
(2 hours ago)
Valid From Jul-20 @ 12:00 UTC
(2 hours ago)
Valid To Jul-21 @ 12:00 UTC
(in 22 hours)
Jul-20 @ 12:00 - Jul-20 @ 12:30
Clouds
  • Scattered at 100' AGL
From Jul-20 @ 12:30 - Jul-21 @ 08:00
Wind Visibility
160° at 5 knots Greater than 6 miles
Clouds
  • Clear skies
From Jul-21 @ 08:00 - Jul-21 @ 12:00
Clouds
  • Broken at 500' AGL
Conditions
  • Mist